Nibulon 1 — UUAS4 — position and weather

sailwx.info

Track history (hours):
 
Tides and Currents Weather Stations Pressure Air Temp Water Temp Dewpoint Dewpoint Depression Visibility Wind Speed Wind Dir Waves Ship Positions

Nibulon 1

Last reported at 2014-Sep-15 11:28 UTC. Time now 2014-Sep-16 17:29 UTC.
Position N 47°40' E 035°07'.

Length 38 m; draft 2.6 m.

Type: Tug. MMSI: 272641000.

Date/timePositionNaut miles runAvg speedWind from/ knotsBaromVisibWave heightAir tempDewpointWater temp
2014-Sep-15 11:28N 47°40' E 035°07'4 4.0
2014-Sep-15 10:33N 47°44' E 035°10'4 4.0
2014-Sep-15 09:33N 47°48' E 035°10'1 1.1
2014-Sep-15 08:33N 47°49' E 035°09'4 4.0
2014-Sep-15 07:33N 47°52' E 035°05'0 0.1
2014-Sep-15 06:33N 47°52' E 035°05'1 0.9
2014-Sep-15 05:33N 47°53' E 035°06'3 2.5
2014-Sep-15 04:33N 47°50' E 035°06'0 0.0
2014-Sep-15 03:33N 47°50' E 035°06'2 1.7
2014-Sep-15 02:33N 47°52' E 035°06'0 0.1
2014-Sep-15 01:33N 47°52' E 035°06'1 0.8
2014-Sep-15 00:33N 47°53' E 035°06'0 0.0
2014-Sep-14 23:33N 47°53' E 035°06'0 0.0
2014-Sep-14 22:33N 47°53' E 035°06'0 0.0
2014-Sep-14 21:33N 47°53' E 035°06'0 0.0
2014-Sep-14 20:33N 47°53' E 035°06'0 0.0
2014-Sep-14 19:33N 47°53' E 035°06'0 0.0
2014-Sep-14 18:33N 47°53' E 035°06'0 0.1
2014-Sep-14 17:33N 47°53' E 035°06'0 0.0
2014-Sep-14 16:33N 47°53' E 035°06'3 3.4
2014-Sep-14 15:33N 47°56' E 035°07'  
2014-Sep-08 18:14N 48°01' E 035°08'4 5.0
2014-Sep-08 17:30N 47°58' E 035°07'5 5.0
2014-Sep-08 16:33N 47°53' E 035°06'1 1.3
2014-Sep-08 15:33N 47°52' E 035°05'0 0.2
2014-Sep-08 14:33N 47°52' E 035°05'1 1.2
2014-Sep-08 13:33N 47°51' E 035°05'3 3.4
2014-Sep-08 12:33N 47°48' E 035°09'4 4.1
2014-Sep-08 11:30N 47°52' E 035°05'1 0.8
2014-Sep-08 10:33N 47°53' E 035°06'1 1.0
2014-Sep-08 09:33N 47°52' E 035°05'4 4.1
2014-Sep-08 08:33N 47°49' E 035°09'4 4.1
2014-Sep-08 07:33N 47°52' E 035°05'0 0.3
2014-Sep-08 06:33N 47°52' E 035°06'0 0.0
2014-Sep-08 05:33N 47°52' E 035°06'1 0.6
2014-Sep-08 04:33N 47°53' E 035°06'1 0.9
2014-Sep-08 03:33N 47°52' E 035°05'2 1.7
2014-Sep-08 02:33N 47°50' E 035°06'3 2.7
2014-Sep-08 01:33N 47°49' E 035°09'0 0.0
2014-Sep-08 00:33N 47°49' E 035°09'0 0.0
2014-Sep-07 23:33N 47°49' E 035°09'0 0.0
2014-Sep-07 21:33N 47°49' E 035°09'0 0.0
2014-Sep-07 20:33N 47°49' E 035°09'0 0.0
2014-Sep-07 19:33N 47°49' E 035°09'0 0.0
2014-Sep-07 18:33N 47°49' E 035°09'0 0.5
2014-Sep-07 17:33N 47°48' E 035°10'0 0.0
2014-Sep-07 16:33N 47°48' E 035°10'0 0.4
2014-Sep-07 15:33N 47°49' E 035°09'4 3.5
2014-Sep-07 14:33N 47°45' E 035°10'4 4.4
2014-Sep-07 13:33N 47°41' E 035°08'140 3.5
2014-Sep-05 21:29N 46°32' E 032°08'5 4.9
2014-Sep-05 20:33N 46°32' E 032°02'5 5.1
2014-Sep-05 19:33N 46°34' E 031°55'5 5.2
2014-Sep-05 18:32N 46°35' E 031°47'8 4.3
2014-Sep-05 16:34N 46°37' E 031°35'  
Track history (hours):
 
Tides and Currents Weather Stations Pressure Air Temp Water Temp Dewpoint Dewpoint Depression Visibility Wind Speed Wind Dir Waves Ship Positions

Nibulon 1

Last reported at 2014-Sep-15 11:28 UTC. Time now 2014-Sep-16 17:29 UTC.
Position N 47°40' E 035°07'.

Length 38 m; draft 2.6 m.

Type: Tug. MMSI: 272641000.

Date/timePositionNaut miles runAvg speedWind from/ knotsBaromVisibWave heightAir tempDewpointWater temp
2014-Sep-15 11:28N 47°40' E 035°07'4 4.0
2014-Sep-15 10:33N 47°44' E 035°10'4 4.0
2014-Sep-15 09:33N 47°48' E 035°10'1 1.1
2014-Sep-15 08:33N 47°49' E 035°09'4 4.0
2014-Sep-15 07:33N 47°52' E 035°05'0 0.1
2014-Sep-15 06:33N 47°52' E 035°05'1 0.9
2014-Sep-15 05:33N 47°53' E 035°06'3 2.5
2014-Sep-15 04:33N 47°50' E 035°06'0 0.0
2014-Sep-15 03:33N 47°50' E 035°06'2 1.7
2014-Sep-15 02:33N 47°52' E 035°06'0 0.1
2014-Sep-15 01:33N 47°52' E 035°06'1 0.8
2014-Sep-15 00:33N 47°53' E 035°06'0 0.0
2014-Sep-14 23:33N 47°53' E 035°06'0 0.0
2014-Sep-14 22:33N 47°53' E 035°06'0 0.0
2014-Sep-14 21:33N 47°53' E 035°06'0 0.0
2014-Sep-14 20:33N 47°53' E 035°06'0 0.0
2014-Sep-14 19:33N 47°53' E 035°06'0 0.0
2014-Sep-14 18:33N 47°53' E 035°06'0 0.1
2014-Sep-14 17:33N 47°53' E 035°06'0 0.0
2014-Sep-14 16:33N 47°53' E 035°06'3 3.4
2014-Sep-14 15:33N 47°56' E 035°07'  
2014-Sep-08 18:14N 48°01' E 035°08'4 5.0
2014-Sep-08 17:30N 47°58' E 035°07'5 5.0
2014-Sep-08 16:33N 47°53' E 035°06'1 1.3
2014-Sep-08 15:33N 47°52' E 035°05'0 0.2
2014-Sep-08 14:33N 47°52' E 035°05'1 1.2
2014-Sep-08 13:33N 47°51' E 035°05'3 3.4
2014-Sep-08 12:33N 47°48' E 035°09'4 4.1
2014-Sep-08 11:30N 47°52' E 035°05'1 0.8
2014-Sep-08 10:33N 47°53' E 035°06'1 1.0
2014-Sep-08 09:33N 47°52' E 035°05'4 4.1
2014-Sep-08 08:33N 47°49' E 035°09'4 4.1
2014-Sep-08 07:33N 47°52' E 035°05'0 0.3
2014-Sep-08 06:33N 47°52' E 035°06'0 0.0
2014-Sep-08 05:33N 47°52' E 035°06'1 0.6
2014-Sep-08 04:33N 47°53' E 035°06'1 0.9
2014-Sep-08 03:33N 47°52' E 035°05'2 1.7
2014-Sep-08 02:33N 47°50' E 035°06'3 2.7
2014-Sep-08 01:33N 47°49' E 035°09'0 0.0
2014-Sep-08 00:33N 47°49' E 035°09'0 0.0
2014-Sep-07 23:33N 47°49' E 035°09'0 0.0
2014-Sep-07 21:33N 47°49' E 035°09'0 0.0
2014-Sep-07 20:33N 47°49' E 035°09'0 0.0
2014-Sep-07 19:33N 47°49' E 035°09'0 0.0
2014-Sep-07 18:33N 47°49' E 035°09'0 0.5
2014-Sep-07 17:33N 47°48' E 035°10'0 0.0
2014-Sep-07 16:33N 47°48' E 035°10'0 0.4
2014-Sep-07 15:33N 47°49' E 035°09'4 3.5
2014-Sep-07 14:33N 47°45' E 035°10'4 4.4
2014-Sep-07 13:33N 47°41' E 035°08'140 3.5
2014-Sep-05 21:29N 46°32' E 032°08'5 4.9
2014-Sep-05 20:33N 46°32' E 032°02'5 5.1
2014-Sep-05 19:33N 46°34' E 031°55'5 5.2
2014-Sep-05 18:32N 46°35' E 031°47'8 4.3
2014-Sep-05 16:34N 46°37' E 031°35'  

Dump ship's entire track history